sensor_id;sensor_type;location;lat;lon;timestamp;P1;durP1;ratioP1;P2;durP2;ratioP2
64291;SDS011;50628;51.008;13.658;2022-10-22T00:02:53;31.43;;;20.93;;
64291;SDS011;50628;51.008;13.658;2022-10-22T00:07:54;29.13;;;23.33;;
64291;SDS011;50628;51.008;13.658;2022-10-22T00:12:56;31.27;;;22.37;;
64291;SDS011;50628;51.008;13.658;2022-10-22T00:17:59;29.17;;;21.73;;
64291;SDS011;50628;51.008;13.658;2022-10-22T00:23:01;28.57;;;19.87;;
64291;SDS011;50628;51.008;13.658;2022-10-22T00:28:03;32.17;;;21.53;;
64291;SDS011;50628;51.008;13.658;2022-10-22T00:33:06;33.57;;;24.53;;
64291;SDS011;50628;51.008;13.658;2022-10-22T00:38:08;31.73;;;24.77;;
64291;SDS011;50628;51.008;13.658;2022-10-22T00:43:10;35.90;;;25.13;;
64291;SDS011;50628;51.008;13.658;2022-10-22T00:48:13;35.43;;;24.70;;
64291;SDS011;50628;51.008;13.658;2022-10-22T00:53:19;38.63;;;25.27;;
64291;SDS011;50628;51.008;13.658;2022-10-22T00:58:25;37.13;;;25.17;;
64291;SDS011;50628;51.008;13.658;2022-10-22T01:03:31;38.77;;;27.70;;
64291;SDS011;50628;51.008;13.658;2022-10-22T01:08:35;35.60;;;25.93;;
64291;SDS011;50628;51.008;13.658;2022-10-22T01:13:46;35.50;;;25.27;;
64291;SDS011;50628;51.008;13.658;2022-10-22T01:18:56;35.07;;;23.60;;
64291;SDS011;50628;51.008;13.658;2022-10-22T01:29:38;32.07;;;21.97;;
64291;SDS011;50628;51.008;13.658;2022-10-22T01:34:43;31.03;;;22.03;;
64291;SDS011;50628;51.008;13.658;2022-10-22T01:39:49;32.03;;;24.47;;
64291;SDS011;50628;51.008;13.658;2022-10-22T01:44:54;35.10;;;24.60;;
64291;SDS011;50628;51.008;13.658;2022-10-22T01:50:03;36.67;;;24.50;;
64291;SDS011;50628;51.008;13.658;2022-10-22T01:55:16;33.70;;;23.60;;
64291;SDS011;50628;51.008;13.658;2022-10-22T02:00:26;31.90;;;22.67;;
64291;SDS011;50628;51.008;13.658;2022-10-22T02:05:29;33.60;;;21.73;;
64291;SDS011;50628;51.008;13.658;2022-10-22T02:10:38;30.67;;;23.80;;
64291;SDS011;50628;51.008;13.658;2022-10-22T02:15:45;33.30;;;24.93;;
64291;SDS011;50628;51.008;13.658;2022-10-22T02:20:49;41.00;;;27.80;;
64291;SDS011;50628;51.008;13.658;2022-10-22T02:25:54;43.97;;;27.90;;
64291;SDS011;50628;51.008;13.658;2022-10-22T02:31:05;43.00;;;27.87;;
64291;SDS011;50628;51.008;13.658;2022-10-22T02:36:13;39.77;;;26.73;;
64291;SDS011;50628;51.008;13.658;2022-10-22T02:41:17;37.37;;;25.50;;
64291;SDS011;50628;51.008;13.658;2022-10-22T02:46:20;39.17;;;27.60;;
64291;SDS011;50628;51.008;13.658;2022-10-22T02:51:23;41.03;;;26.33;;
64291;SDS011;50628;51.008;13.658;2022-10-22T02:56:24;37.50;;;25.97;;
64291;SDS011;50628;51.008;13.658;2022-10-22T03:01:27;38.73;;;27.17;;
64291;SDS011;50628;51.008;13.658;2022-10-22T03:06:29;39.60;;;26.23;;
64291;SDS011;50628;51.008;13.658;2022-10-22T03:11:31;41.27;;;27.90;;
64291;SDS011;50628;51.008;13.658;2022-10-22T03:16:34;43.97;;;29.57;;
64291;SDS011;50628;51.008;13.658;2022-10-22T03:21:36;43.53;;;29.87;;
64291;SDS011;50628;51.008;13.658;2022-10-22T03:26:41;35.93;;;25.60;;
64291;SDS011;50628;51.008;13.658;2022-10-22T03:31:47;41.20;;;27.20;;
64291;SDS011;50628;51.008;13.658;2022-10-22T03:36:48;41.90;;;28.97;;
64291;SDS011;50628;51.008;13.658;2022-10-22T03:41:52;40.60;;;29.47;;
64291;SDS011;50628;51.008;13.658;2022-10-22T03:46:55;42.93;;;27.37;;
64291;SDS011;50628;51.008;13.658;2022-10-22T03:51:58;37.00;;;26.67;;
64291;SDS011;50628;51.008;13.658;2022-10-22T03:57:06;37.90;;;26.53;;
64291;SDS011;50628;51.008;13.658;2022-10-22T04:02:09;40.20;;;26.60;;
64291;SDS011;50628;51.008;13.658;2022-10-22T04:07:12;35.90;;;25.80;;
64291;SDS011;50628;51.008;13.658;2022-10-22T04:12:13;33.50;;;24.73;;
64291;SDS011;50628;51.008;13.658;2022-10-22T04:17:16;37.97;;;25.73;;
64291;SDS011;50628;51.008;13.658;2022-10-22T04:22:18;39.47;;;27.37;;
64291;SDS011;50628;51.008;13.658;2022-10-22T04:27:20;35.97;;;26.00;;
64291;SDS011;50628;51.008;13.658;2022-10-22T04:32:23;37.27;;;25.73;;
64291;SDS011;50628;51.008;13.658;2022-10-22T04:37:25;42.43;;;27.43;;
64291;SDS011;50628;51.008;13.658;2022-10-22T04:42:26;38.87;;;26.00;;
64291;SDS011;50628;51.008;13.658;2022-10-22T04:47:29;35.10;;;27.33;;
64291;SDS011;50628;51.008;13.658;2022-10-22T04:52:31;39.53;;;25.53;;
64291;SDS011;50628;51.008;13.658;2022-10-22T04:57:33;35.87;;;24.10;;
64291;SDS011;50628;51.008;13.658;2022-10-22T05:02:37;41.00;;;26.33;;
64291;SDS011;50628;51.008;13.658;2022-10-22T05:07:39;36.37;;;25.80;;
64291;SDS011;50628;51.008;13.658;2022-10-22T05:12:41;38.53;;;25.60;;
64291;SDS011;50628;51.008;13.658;2022-10-22T05:17:44;41.30;;;27.47;;
64291;SDS011;50628;51.008;13.658;2022-10-22T05:22:46;33.93;;;23.90;;
64291;SDS011;50628;51.008;13.658;2022-10-22T05:27:47;38.07;;;25.97;;
64291;SDS011;50628;51.008;13.658;2022-10-22T05:32:51;38.17;;;25.33;;
64291;SDS011;50628;51.008;13.658;2022-10-22T05:37:53;37.10;;;25.80;;
64291;SDS011;50628;51.008;13.658;2022-10-22T05:42:54;39.10;;;24.97;;
64291;SDS011;50628;51.008;13.658;2022-10-22T05:47:57;33.00;;;23.57;;
64291;SDS011;50628;51.008;13.658;2022-10-22T05:52:59;42.13;;;27.03;;
64291;SDS011;50628;51.008;13.658;2022-10-22T05:58:01;43.13;;;28.73;;
64291;SDS011;50628;51.008;13.658;2022-10-22T06:03:04;36.63;;;26.33;;
64291;SDS011;50628;51.008;13.658;2022-10-22T06:08:07;37.53;;;27.50;;
64291;SDS011;50628;51.008;13.658;2022-10-22T06:13:10;44.63;;;28.97;;
64291;SDS011;50628;51.008;13.658;2022-10-22T06:18:13;35.23;;;26.50;;
64291;SDS011;50628;51.008;13.658;2022-10-22T06:23:15;35.23;;;24.90;;
64291;SDS011;50628;51.008;13.658;2022-10-22T06:28:16;38.30;;;26.77;;
64291;SDS011;50628;51.008;13.658;2022-10-22T06:33:19;32.63;;;24.43;;
64291;SDS011;50628;51.008;13.658;2022-10-22T06:38:21;37.47;;;27.40;;
64291;SDS011;50628;51.008;13.658;2022-10-22T06:43:23;33.53;;;24.40;;
64291;SDS011;50628;51.008;13.658;2022-10-22T06:48:26;39.23;;;27.60;;
64291;SDS011;50628;51.008;13.658;2022-10-22T06:53:27;37.50;;;25.83;;
64291;SDS011;50628;51.008;13.658;2022-10-22T06:58:29;33.23;;;24.10;;
64291;SDS011;50628;51.008;13.658;2022-10-22T07:03:32;39.27;;;25.77;;
64291;SDS011;50628;51.008;13.658;2022-10-22T07:08:34;34.90;;;25.93;;
64291;SDS011;50628;51.008;13.658;2022-10-22T07:13:36;41.83;;;28.00;;
64291;SDS011;50628;51.008;13.658;2022-10-22T07:18:40;38.40;;;28.43;;
64291;SDS011;50628;51.008;13.658;2022-10-22T07:23:42;35.60;;;26.27;;
64291;SDS011;50628;51.008;13.658;2022-10-22T07:28:45;42.30;;;29.13;;
64291;SDS011;50628;51.008;13.658;2022-10-22T07:33:48;39.97;;;28.03;;
64291;SDS011;50628;51.008;13.658;2022-10-22T07:38:52;51.00;;;30.23;;
64291;SDS011;50628;51.008;13.658;2022-10-22T07:43:55;44.40;;;31.90;;
64291;SDS011;50628;51.008;13.658;2022-10-22T07:48:58;16.77;;;9.97;;
64291;SDS011;50628;51.008;13.658;2022-10-22T07:54:00;5.00;;;2.30;;
64291;SDS011;50628;51.008;13.658;2022-10-22T07:59:02;7.10;;;2.50;;
64291;SDS011;50628;51.008;13.658;2022-10-22T08:04:05;3.43;;;1.63;;
64291;SDS011;50628;51.008;13.658;2022-10-22T08:09:08;3.80;;;1.43;;
64291;SDS011;50628;51.008;13.658;2022-10-22T08:14:10;3.57;;;1.30;;
64291;SDS011;50628;51.008;13.658;2022-10-22T08:19:13;2.13;;;1.47;;
64291;SDS011;50628;51.008;13.658;2022-10-22T08:24:17;3.43;;;0.77;;
64291;SDS011;50628;51.008;13.658;2022-10-22T08:29:19;4.03;;;1.27;;
64291;SDS011;50628;51.008;13.658;2022-10-22T08:34:23;3.03;;;1.00;;
64291;SDS011;50628;51.008;13.658;2022-10-22T08:39:25;2.03;;;1.00;;
64291;SDS011;50628;51.008;13.658;2022-10-22T08:44:30;3.33;;;1.07;;
64291;SDS011;50628;51.008;13.658;2022-10-22T08:49:48;2.90;;;0.83;;
64291;SDS011;50628;51.008;13.658;2022-10-22T08:54:51;3.93;;;1.30;;
64291;SDS011;50628;51.008;13.658;2022-10-22T08:59:55;6.03;;;2.10;;
64291;SDS011;50628;51.008;13.658;2022-10-22T09:05:10;2.73;;;1.20;;
64291;SDS011;50628;51.008;13.658;2022-10-22T09:10:23;1.90;;;1.10;;
64291;SDS011;50628;51.008;13.658;2022-10-22T09:15:29;4.00;;;2.10;;
64291;SDS011;50628;51.008;13.658;2022-10-22T09:20:33;3.70;;;1.80;;
64291;SDS011;50628;51.008;13.658;2022-10-22T09:25:45;3.73;;;1.03;;
64291;SDS011;50628;51.008;13.658;2022-10-22T09:30:50;6.70;;;2.23;;
64291;SDS011;50628;51.008;13.658;2022-10-22T09:35:54;3.87;;;2.20;;
64291;SDS011;50628;51.008;13.658;2022-10-22T09:40:59;3.97;;;1.90;;
64291;SDS011;50628;51.008;13.658;2022-10-22T09:46:04;2.40;;;1.03;;
64291;SDS011;50628;51.008;13.658;2022-10-22T09:51:12;2.10;;;1.27;;
64291;SDS011;50628;51.008;13.658;2022-10-22T09:56:20;1.63;;;0.93;;
64291;SDS011;50628;51.008;13.658;2022-10-22T10:01:26;5.15;;;1.15;;
64291;SDS011;50628;51.008;13.658;2022-10-22T10:06:32;2.20;;;1.02;;
64291;SDS011;50628;51.008;13.658;2022-10-22T10:11:36;1.70;;;0.85;;
64291;SDS011;50628;51.008;13.658;2022-10-22T10:16:48;2.92;;;0.82;;
64291;SDS011;50628;51.008;13.658;2022-10-22T10:22:03;2.00;;;0.93;;
64291;SDS011;50628;51.008;13.658;2022-10-22T10:27:12;5.72;;;1.02;;
64291;SDS011;50628;51.008;13.658;2022-10-22T10:32:26;3.53;;;0.50;;
64291;SDS011;50628;51.008;13.658;2022-10-22T10:37:40;0.60;;;0.40;;
64291;SDS011;50628;51.008;13.658;2022-10-22T10:42:47;0.80;;;0.60;;
64291;SDS011;50628;51.008;13.658;2022-10-22T10:48:06;0.63;;;0.30;;
64291;SDS011;50628;51.008;13.658;2022-10-22T10:53:22;1.08;;;0.70;;
64291;SDS011;50628;51.008;13.658;2022-10-22T10:58:33;1.38;;;0.40;;
64291;SDS011;50628;51.008;13.658;2022-10-22T11:03:52;2.10;;;0.50;;
64291;SDS011;50628;51.008;13.658;2022-10-22T11:09:09;1.25;;;0.40;;
64291;SDS011;50628;51.008;13.658;2022-10-22T11:14:25;1.75;;;0.30;;
64291;SDS011;50628;51.008;13.658;2022-10-22T11:19:31;0.73;;;0.40;;
64291;SDS011;50628;51.008;13.658;2022-10-22T11:24:42;1.67;;;0.47;;
64291;SDS011;50628;51.008;13.658;2022-10-22T11:29:53;2.72;;;0.60;;
64291;SDS011;50628;51.008;13.658;2022-10-22T11:35:02;4.10;;;1.30;;
64291;SDS011;50628;51.008;13.658;2022-10-22T11:40:12;0.95;;;0.63;;
64291;SDS011;50628;51.008;13.658;2022-10-22T11:45:26;0.82;;;0.43;;
64291;SDS011;50628;51.008;13.658;2022-10-22T11:50:42;1.73;;;0.55;;
64291;SDS011;50628;51.008;13.658;2022-10-22T11:55:48;0.50;;;0.40;;
64291;SDS011;50628;51.008;13.658;2022-10-22T12:00:51;2.75;;;0.40;;
64291;SDS011;50628;51.008;13.658;2022-10-22T12:06:05;1.60;;;0.50;;
64291;SDS011;50628;51.008;13.658;2022-10-22T12:11:21;2.28;;;0.77;;
64291;SDS011;50628;51.008;13.658;2022-10-22T12:16:26;0.50;;;0.40;;
64291;SDS011;50628;51.008;13.658;2022-10-22T12:21:29;1.48;;;0.57;;
64291;SDS011;50628;51.008;13.658;2022-10-22T12:26:35;0.75;;;0.70;;
64291;SDS011;50628;51.008;13.658;2022-10-22T12:31:38;1.85;;;0.40;;
64291;SDS011;50628;51.008;13.658;2022-10-22T12:36:43;2.80;;;0.95;;
64291;SDS011;50628;51.008;13.658;2022-10-22T12:41:48;1.63;;;0.95;;
64291;SDS011;50628;51.008;13.658;2022-10-22T12:46:52;1.20;;;0.60;;
64291;SDS011;50628;51.008;13.658;2022-10-22T12:51:54;0.95;;;0.47;;
64291;SDS011;50628;51.008;13.658;2022-10-22T12:57:02;2.40;;;0.90;;
64291;SDS011;50628;51.008;13.658;2022-10-22T13:02:08;0.70;;;0.40;;
64291;SDS011;50628;51.008;13.658;2022-10-22T13:07:17;0.60;;;0.50;;
64291;SDS011;50628;51.008;13.658;2022-10-22T13:12:22;0.85;;;0.70;;
64291;SDS011;50628;51.008;13.658;2022-10-22T13:17:36;3.88;;;0.50;;
64291;SDS011;50628;51.008;13.658;2022-10-22T13:22:40;3.05;;;0.55;;
64291;SDS011;50628;51.008;13.658;2022-10-22T13:27:55;3.13;;;0.50;;
64291;SDS011;50628;51.008;13.658;2022-10-22T13:32:58;2.83;;;0.40;;
64291;SDS011;50628;51.008;13.658;2022-10-22T13:38:02;3.90;;;3.47;;
64291;SDS011;50628;51.008;13.658;2022-10-22T13:43:15;0.60;;;0.30;;
64291;SDS011;50628;51.008;13.658;2022-10-22T13:48:19;1.75;;;0.40;;
64291;SDS011;50628;51.008;13.658;2022-10-22T13:53:24;1.35;;;0.30;;
64291;SDS011;50628;51.008;13.658;2022-10-22T13:58:29;4.93;;;0.70;;
64291;SDS011;50628;51.008;13.658;2022-10-22T14:03:31;1.17;;;0.32;;
64291;SDS011;50628;51.008;13.658;2022-10-22T14:08:36;1.92;;;0.60;;
64291;SDS011;50628;51.008;13.658;2022-10-22T14:13:39;2.85;;;0.80;;
64291;SDS011;50628;51.008;13.658;2022-10-22T14:18:41;0.70;;;0.40;;
64291;SDS011;50628;51.008;13.658;2022-10-22T14:23:44;1.23;;;0.40;;
64291;SDS011;50628;51.008;13.658;2022-10-22T14:28:49;2.55;;;0.43;;
64291;SDS011;50628;51.008;13.658;2022-10-22T14:33:50;0.85;;;0.28;;
64291;SDS011;50628;51.008;13.658;2022-10-22T14:38:52;3.20;;;0.50;;
64291;SDS011;50628;51.008;13.658;2022-10-22T14:43:55;1.63;;;0.60;;
64291;SDS011;50628;51.008;13.658;2022-10-22T14:48:58;1.55;;;0.30;;
64291;SDS011;50628;51.008;13.658;2022-10-22T14:54:00;3.05;;;0.40;;
64291;SDS011;50628;51.008;13.658;2022-10-22T14:59:03;2.17;;;0.40;;
64291;SDS011;50628;51.008;13.658;2022-10-22T15:04:05;2.78;;;0.30;;
64291;SDS011;50628;51.008;13.658;2022-10-22T15:09:06;3.70;;;0.60;;
64291;SDS011;50628;51.008;13.658;2022-10-22T15:14:09;1.73;;;0.30;;
64291;SDS011;50628;51.008;13.658;2022-10-22T15:19:11;2.05;;;0.30;;
64291;SDS011;50628;51.008;13.658;2022-10-22T15:24:13;1.92;;;0.60;;
64291;SDS011;50628;51.008;13.658;2022-10-22T15:29:16;2.35;;;0.63;;
64291;SDS011;50628;51.008;13.658;2022-10-22T15:34:18;5.72;;;0.70;;
64291;SDS011;50628;51.008;13.658;2022-10-22T15:39:21;1.60;;;0.60;;
64291;SDS011;50628;51.008;13.658;2022-10-22T15:44:26;1.08;;;0.70;;
64291;SDS011;50628;51.008;13.658;2022-10-22T15:49:29;1.50;;;0.70;;
64291;SDS011;50628;51.008;13.658;2022-10-22T15:54:31;3.75;;;1.33;;
64291;SDS011;50628;51.008;13.658;2022-10-22T15:59:35;5.53;;;1.60;;
64291;SDS011;50628;51.008;13.658;2022-10-22T16:04:37;5.03;;;2.60;;
64291;SDS011;50628;51.008;13.658;2022-10-22T16:09:38;2.35;;;1.40;;
64291;SDS011;50628;51.008;13.658;2022-10-22T16:14:42;6.93;;;2.97;;
64291;SDS011;50628;51.008;13.658;2022-10-22T16:19:43;7.72;;;4.32;;
64291;SDS011;50628;51.008;13.658;2022-10-22T16:24:45;5.90;;;3.67;;
64291;SDS011;50628;51.008;13.658;2022-10-22T16:29:48;11.93;;;3.67;;
64291;SDS011;50628;51.008;13.658;2022-10-22T16:34:50;9.20;;;3.95;;
64291;SDS011;50628;51.008;13.658;2022-10-22T16:39:52;8.73;;;4.30;;
64291;SDS011;50628;51.008;13.658;2022-10-22T16:44:55;12.90;;;4.20;;
64291;SDS011;50628;51.008;13.658;2022-10-22T16:49:56;5.60;;;3.83;;
64291;SDS011;50628;51.008;13.658;2022-10-22T16:55:00;6.32;;;4.45;;
64291;SDS011;50628;51.008;13.658;2022-10-22T17:00:04;4.85;;;3.78;;
64291;SDS011;50628;51.008;13.658;2022-10-22T17:05:06;12.15;;;5.60;;
64291;SDS011;50628;51.008;13.658;2022-10-22T17:10:08;8.97;;;4.70;;
64291;SDS011;50628;51.008;13.658;2022-10-22T17:15:11;8.73;;;5.55;;
64291;SDS011;50628;51.008;13.658;2022-10-22T17:20:13;10.40;;;4.27;;
64291;SDS011;50628;51.008;13.658;2022-10-22T17:25:18;8.60;;;4.07;;
64291;SDS011;50628;51.008;13.658;2022-10-22T17:30:24;8.93;;;4.77;;
64291;SDS011;50628;51.008;13.658;2022-10-22T17:35:27;11.63;;;7.67;;
64291;SDS011;50628;51.008;13.658;2022-10-22T17:40:29;31.63;;;17.83;;
64291;SDS011;50628;51.008;13.658;2022-10-22T17:45:32;9.63;;;6.10;;
64291;SDS011;50628;51.008;13.658;2022-10-22T17:50:38;9.70;;;5.67;;
64291;SDS011;50628;51.008;13.658;2022-10-22T17:55:40;15.60;;;6.77;;
64291;SDS011;50628;51.008;13.658;2022-10-22T18:00:43;10.10;;;3.53;;
64291;SDS011;50628;51.008;13.658;2022-10-22T18:05:45;6.83;;;3.80;;
64291;SDS011;50628;51.008;13.658;2022-10-22T18:10:47;9.47;;;3.80;;
64291;SDS011;50628;51.008;13.658;2022-10-22T18:15:53;10.80;;;6.10;;
64291;SDS011;50628;51.008;13.658;2022-10-22T18:20:56;13.97;;;7.60;;
64291;SDS011;50628;51.008;13.658;2022-10-22T18:25:59;8.87;;;5.20;;
64291;SDS011;50628;51.008;13.658;2022-10-22T18:31:06;9.53;;;4.40;;
64291;SDS011;50628;51.008;13.658;2022-10-22T18:36:10;9.37;;;3.93;;
64291;SDS011;50628;51.008;13.658;2022-10-22T18:41:13;7.60;;;4.13;;
64291;SDS011;50628;51.008;13.658;2022-10-22T18:46:16;9.07;;;3.80;;
64291;SDS011;50628;51.008;13.658;2022-10-22T18:51:18;6.03;;;2.83;;
64291;SDS011;50628;51.008;13.658;2022-10-22T18:56:20;3.50;;;2.73;;
64291;SDS011;50628;51.008;13.658;2022-10-22T19:01:24;4.63;;;3.03;;
64291;SDS011;50628;51.008;13.658;2022-10-22T19:06:29;6.93;;;2.90;;
64291;SDS011;50628;51.008;13.658;2022-10-22T19:11:31;6.03;;;2.43;;
64291;SDS011;50628;51.008;13.658;2022-10-22T19:16:34;9.80;;;2.80;;
64291;SDS011;50628;51.008;13.658;2022-10-22T19:21:36;7.60;;;2.50;;
64291;SDS011;50628;51.008;13.658;2022-10-22T19:26:38;5.30;;;1.93;;
64291;SDS011;50628;51.008;13.658;2022-10-22T19:31:41;8.10;;;3.03;;
64291;SDS011;50628;51.008;13.658;2022-10-22T19:36:43;4.73;;;2.33;;
64291;SDS011;50628;51.008;13.658;2022-10-22T19:41:45;4.97;;;2.03;;
64291;SDS011;50628;51.008;13.658;2022-10-22T19:46:48;10.53;;;2.13;;
64291;SDS011;50628;51.008;13.658;2022-10-22T19:51:50;8.23;;;1.93;;
64291;SDS011;50628;51.008;13.658;2022-10-22T19:56:51;5.73;;;1.90;;
64291;SDS011;50628;51.008;13.658;2022-10-22T20:01:54;3.67;;;1.97;;
64291;SDS011;50628;51.008;13.658;2022-10-22T20:06:56;5.37;;;2.17;;
64291;SDS011;50628;51.008;13.658;2022-10-22T20:11:58;8.97;;;2.30;;
64291;SDS011;50628;51.008;13.658;2022-10-22T20:17:01;7.37;;;1.97;;
64291;SDS011;50628;51.008;13.658;2022-10-22T20:22:03;4.30;;;2.03;;
64291;SDS011;50628;51.008;13.658;2022-10-22T20:27:04;5.17;;;2.10;;
64291;SDS011;50628;51.008;13.658;2022-10-22T20:32:08;4.13;;;1.70;;
64291;SDS011;50628;51.008;13.658;2022-10-22T20:37:09;4.87;;;1.63;;
64291;SDS011;50628;51.008;13.658;2022-10-22T20:42:11;5.03;;;2.20;;
64291;SDS011;50628;51.008;13.658;2022-10-22T20:47:15;6.03;;;2.30;;
64291;SDS011;50628;51.008;13.658;2022-10-22T20:52:17;4.07;;;1.77;;
64291;SDS011;50628;51.008;13.658;2022-10-22T20:57:19;6.80;;;1.80;;
64291;SDS011;50628;51.008;13.658;2022-10-22T21:02:22;6.13;;;2.03;;
64291;SDS011;50628;51.008;13.658;2022-10-22T21:07:24;5.43;;;2.40;;
64291;SDS011;50628;51.008;13.658;2022-10-22T21:12:26;7.67;;;2.90;;
64291;SDS011;50628;51.008;13.658;2022-10-22T21:17:29;6.23;;;2.60;;
64291;SDS011;50628;51.008;13.658;2022-10-22T21:22:32;4.53;;;2.37;;
64291;SDS011;50628;51.008;13.658;2022-10-22T21:27:33;6.80;;;4.70;;
64291;SDS011;50628;51.008;13.658;2022-10-22T21:32:36;7.50;;;4.50;;
64291;SDS011;50628;51.008;13.658;2022-10-22T21:37:38;14.37;;;4.73;;
64291;SDS011;50628;51.008;13.658;2022-10-22T21:42:40;10.57;;;5.70;;
64291;SDS011;50628;51.008;13.658;2022-10-22T21:47:43;11.07;;;5.30;;
64291;SDS011;50628;51.008;13.658;2022-10-22T21:52:45;11.00;;;5.70;;
64291;SDS011;50628;51.008;13.658;2022-10-22T21:57:47;12.30;;;6.33;;
64291;SDS011;50628;51.008;13.658;2022-10-22T22:02:50;10.13;;;6.17;;
64291;SDS011;50628;51.008;13.658;2022-10-22T22:07:52;9.97;;;6.67;;
64291;SDS011;50628;51.008;13.658;2022-10-22T22:12:53;16.40;;;7.70;;
64291;SDS011;50628;51.008;13.658;2022-10-22T22:17:56;20.60;;;16.07;;
64291;SDS011;50628;51.008;13.658;2022-10-22T22:22:58;14.43;;;12.40;;
64291;SDS011;50628;51.008;13.658;2022-10-22T22:28:00;16.70;;;13.80;;
64291;SDS011;50628;51.008;13.658;2022-10-22T22:33:03;23.40;;;21.10;;
64291;SDS011;50628;51.008;13.658;2022-10-22T22:38:06;17.93;;;16.30;;
64291;SDS011;50628;51.008;13.658;2022-10-22T22:43:07;16.90;;;14.50;;
64291;SDS011;50628;51.008;13.658;2022-10-22T22:48:11;16.87;;;15.23;;
64291;SDS011;50628;51.008;13.658;2022-10-22T22:53:12;12.60;;;11.50;;
64291;SDS011;50628;51.008;13.658;2022-10-22T22:58:14;14.07;;;8.53;;
64291;SDS011;50628;51.008;13.658;2022-10-22T23:03:17;15.90;;;10.37;;
64291;SDS011;50628;51.008;13.658;2022-10-22T23:08:19;10.50;;;9.40;;
64291;SDS011;50628;51.008;13.658;2022-10-22T23:13:21;7.17;;;6.47;;
64291;SDS011;50628;51.008;13.658;2022-10-22T23:18:24;12.73;;;5.40;;
64291;SDS011;50628;51.008;13.658;2022-10-22T23:23:26;7.50;;;6.10;;
64291;SDS011;50628;51.008;13.658;2022-10-22T23:28:27;6.17;;;3.70;;
64291;SDS011;50628;51.008;13.658;2022-10-22T23:33:30;7.57;;;3.53;;
64291;SDS011;50628;51.008;13.658;2022-10-22T23:38:32;5.70;;;2.50;;
64291;SDS011;50628;51.008;13.658;2022-10-22T23:43:35;10.27;;;3.83;;
64291;SDS011;50628;51.008;13.658;2022-10-22T23:48:39;8.70;;;3.13;;
64291;SDS011;50628;51.008;13.658;2022-10-22T23:53:41;5.27;;;2.27;;
64291;SDS011;50628;51.008;13.658;2022-10-22T23:58:44;13.27;;;2.57;;
